createdAt,value
2017-08-19T00:02:15.570Z,77.00
2017-08-19T00:04:44.147Z,70.90
2017-08-19T00:07:12.871Z,81.90
2017-08-19T00:09:41.267Z,63.23
2017-08-19T00:12:09.821Z,73.33
2017-08-19T00:14:37.946Z,84.27
2017-08-19T00:17:06.534Z,75.53
2017-08-19T00:19:35.147Z,76.03
2017-08-19T00:22:04.007Z,79.20
2017-08-19T00:24:32.472Z,75.63
2017-08-19T00:27:01.079Z,63.60
2017-08-19T00:29:29.870Z,74.47
2017-08-19T00:31:58.514Z,65.10
2017-08-19T00:34:26.538Z,71.00
2017-08-19T00:36:55.170Z,69.50
2017-08-19T00:39:23.891Z,74.33
2017-08-19T00:41:53.064Z,67.47
2017-08-19T00:44:21.575Z,60.87
2017-08-19T00:46:50.098Z,67.17
2017-08-19T00:49:18.746Z,71.60
2017-08-19T00:51:47.605Z,58.10
2017-08-19T00:54:16.050Z,68.63
2017-08-19T00:56:45.199Z,59.10
2017-08-19T00:59:13.774Z,65.93
2017-08-19T01:01:42.490Z,58.00
2017-08-19T01:04:11.243Z,80.60
2017-08-19T01:06:39.765Z,58.10
2017-08-19T01:09:08.354Z,71.37
2017-08-19T01:11:37.038Z,55.40
2017-08-19T01:14:05.931Z,58.40
2017-08-19T01:16:34.414Z,69.17
2017-08-19T01:19:02.894Z,62.83
2017-08-19T01:21:31.715Z,79.73
2017-08-19T01:24:00.360Z,64.20
2017-08-19T01:26:52.570Z,64.93
2017-08-19T01:29:21.031Z,63.23
2017-08-19T01:31:49.603Z,67.03
2017-08-19T01:34:18.434Z,63.13
2017-08-19T01:36:46.831Z,63.50
2017-08-19T01:39:15.439Z,50.90
2017-08-19T01:41:44.146Z,66.53
2017-08-19T01:44:12.638Z,60.17
2017-08-19T01:46:41.191Z,62.10
2017-08-19T01:49:10.007Z,56.33
2017-08-19T01:51:38.759Z,71.83
2017-08-19T01:54:07.285Z,50.60
2017-08-19T01:56:35.939Z,54.43
2017-08-19T01:59:04.582Z,56.07
2017-08-19T02:01:32.987Z,74.17
2017-08-19T02:04:01.722Z,63.20
2017-08-19T02:06:30.301Z,59.40
2017-08-19T02:08:59.025Z,68.87
2017-08-19T02:11:27.510Z,56.10
2017-08-19T02:13:56.031Z,61.37
2017-08-19T02:16:24.747Z,55.70
2017-08-19T02:18:53.675Z,58.93
2017-08-19T02:21:21.698Z,62.63
2017-08-19T02:36:52.849Z,71.13
2017-08-19T02:39:20.866Z,52.23
2017-08-19T02:41:48.879Z,62.17
2017-08-19T02:44:17.719Z,59.03
2017-08-19T02:46:46.125Z,67.80
2017-08-19T02:49:14.721Z,69.37
2017-08-19T02:51:43.470Z,81.77
2017-08-19T02:54:11.871Z,75.83
2017-08-19T02:56:40.479Z,59.80
2017-08-19T02:59:08.770Z,65.50
2017-08-19T03:01:37.270Z,70.50
2017-08-19T03:04:05.298Z,57.57
2017-08-19T03:06:33.859Z,74.03
2017-08-19T03:09:02.379Z,64.57
2017-08-19T03:11:31.022Z,57.10
2017-08-19T03:13:59.956Z,66.30
2017-08-19T03:16:28.391Z,58.50
2017-08-19T03:18:57.942Z,59.20
2017-08-19T03:21:26.559Z,67.10
2017-08-19T03:23:55.018Z,64.03
2017-08-19T03:26:23.663Z,67.77
2017-08-19T03:28:51.783Z,58.50
2017-08-19T03:31:20.466Z,70.53
2017-08-19T03:33:48.498Z,79.27
2017-08-19T03:36:22.170Z,58.70
2017-08-19T03:38:50.758Z,68.67
2017-08-19T03:41:19.866Z,56.90
2017-08-19T03:43:49.927Z,69.17
2017-08-19T03:46:18.458Z,70.67
2017-08-19T03:48:46.566Z,62.70
2017-08-19T03:51:15.009Z,67.07
2017-08-19T03:53:43.558Z,65.60
2017-08-19T03:56:12.414Z,69.23
2017-08-19T03:58:40.438Z,64.80
2017-08-19T04:01:08.972Z,62.40
2017-08-19T04:03:37.863Z,69.70
2017-08-19T04:06:06.310Z,60.23
2017-08-19T04:08:34.354Z,66.07
2017-08-19T04:11:03.002Z,59.93
2017-08-19T04:13:31.734Z,62.13
2017-08-19T04:16:00.342Z,71.73
2017-08-19T04:18:28.490Z,85.67
2017-08-19T04:20:57.178Z,65.53
2017-08-19T04:23:25.794Z,63.43
2017-08-19T04:25:54.651Z,70.30
2017-08-19T04:28:23.953Z,65.57
2017-08-19T04:30:52.610Z,76.40
2017-08-19T04:33:21.142Z,75.83
2017-08-19T04:35:49.710Z,63.73
2017-08-19T04:38:18.606Z,69.07
2017-08-19T04:40:47.394Z,76.13
2017-08-19T04:43:16.072Z,66.03
2017-08-19T04:45:44.446Z,62.47
2017-08-19T04:48:13.278Z,62.97
2017-08-19T04:50:41.895Z,66.03
2017-08-19T04:53:10.299Z,72.23
2017-08-19T04:55:39.244Z,75.63
2017-08-19T04:58:07.818Z,70.50
2017-08-19T05:00:36.571Z,55.70
2017-08-19T05:03:05.149Z,54.87
2017-08-19T05:05:33.758Z,60.60
2017-08-19T05:08:02.325Z,56.57
2017-08-19T05:10:30.986Z,59.63
2017-08-19T05:12:59.026Z,56.00
2017-08-19T05:15:28.399Z,69.32
2017-08-19T05:17:56.527Z,63.33
2017-08-19T05:20:24.562Z,59.83
2017-08-19T05:22:53.064Z,87.70
2017-08-19T05:25:21.926Z,65.47
2017-08-19T05:27:50.606Z,78.62
2017-08-19T05:30:19.385Z,61.07
2017-08-19T05:32:47.962Z,62.80
2017-08-19T05:35:16.572Z,65.53
2017-08-19T05:37:45.250Z,69.03
2017-08-19T05:40:14.354Z,62.20
2017-08-19T05:42:43.132Z,66.47
2017-08-19T05:45:11.613Z,64.10
2017-08-19T05:47:40.309Z,76.30
2017-08-19T05:50:08.351Z,72.72
2017-08-19T05:52:36.969Z,74.82
2017-08-19T05:55:05.783Z,67.35
2017-08-19T05:57:34.435Z,55.35
2017-08-19T06:00:02.859Z,62.15
2017-08-19T06:02:31.614Z,53.20
2017-08-19T06:05:00.262Z,56.05
2017-08-19T06:07:28.667Z,55.20
2017-08-19T06:09:56.780Z,52.85
2017-08-19T06:12:25.223Z,51.10
2017-08-19T06:14:53.263Z,66.60
2017-08-19T06:17:21.894Z,53.13
2017-08-19T06:19:50.410Z,43.87
2017-08-19T06:22:19.058Z,47.00
2017-08-19T06:24:47.915Z,71.83
2017-08-19T06:27:16.323Z,64.50
2017-08-19T06:29:44.930Z,53.85
2017-08-19T06:32:13.707Z,52.97
2017-08-19T06:34:42.386Z,51.13
2017-08-19T06:37:10.915Z,54.30
2017-08-19T06:39:40.822Z,51.90
2017-08-19T06:42:08.846Z,50.83
2017-08-19T06:44:37.459Z,59.55
2017-08-19T06:47:06.386Z,64.78
2017-08-19T06:49:35.655Z,55.22
2017-08-19T06:52:04.238Z,57.83
2017-08-19T06:54:33.082Z,55.00
2017-08-19T06:57:01.799Z,59.55
2017-08-19T06:59:31.314Z,48.28
2017-08-19T07:02:00.279Z,56.72
2017-08-19T07:04:28.679Z,56.10
2017-08-19T07:06:57.282Z,50.83
2017-08-19T07:09:26.095Z,48.92
2017-08-19T07:11:54.818Z,48.57
2017-08-19T07:14:23.532Z,50.03
2017-08-19T07:16:52.193Z,49.50
2017-08-19T07:19:20.719Z,49.17
2017-08-19T07:21:49.398Z,50.40
2017-08-19T07:24:18.290Z,60.47
2017-08-19T07:26:47.071Z,60.90
2017-08-19T07:29:15.594Z,49.13
2017-08-19T07:31:44.358Z,60.57
2017-08-19T07:34:12.966Z,53.80
2017-08-19T07:36:41.614Z,49.87
2017-08-19T07:39:09.762Z,51.60
2017-08-19T07:41:38.722Z,62.37
2017-08-19T07:44:07.442Z,44.17
2017-08-19T07:46:35.927Z,45.57
2017-08-19T07:49:04.380Z,52.50
2017-08-19T07:51:32.930Z,58.57
2017-08-19T07:54:01.139Z,50.97
2017-08-19T07:56:29.184Z,49.17
2017-08-19T07:58:57.665Z,51.30
2017-08-19T08:01:26.464Z,41.58
2017-08-19T08:03:55.199Z,54.75
2017-08-19T08:06:23.254Z,46.75
2017-08-19T08:08:51.368Z,51.25
2017-08-19T08:11:19.431Z,46.70
2017-08-19T08:13:47.870Z,50.23
2017-08-19T08:16:15.986Z,45.03
2017-08-19T08:18:44.019Z,54.27
2017-08-19T08:21:12.040Z,55.00
2017-08-19T08:23:40.786Z,58.47
2017-08-19T08:26:09.874Z,52.30
2017-08-19T08:28:38.353Z,52.40
2017-08-19T08:31:07.325Z,61.03
2017-08-19T08:33:35.344Z,54.77
2017-08-19T08:36:04.570Z,58.93
2017-08-19T08:38:33.282Z,63.03
2017-08-19T08:41:01.890Z,63.10
2017-08-19T08:43:30.010Z,59.63
2017-08-19T08:45:58.654Z,62.17
2017-08-19T08:48:27.271Z,58.87
2017-08-19T08:50:55.702Z,59.30
2017-08-19T08:53:24.482Z,64.87
2017-08-19T08:55:53.198Z,55.07
2017-08-19T08:58:21.843Z,59.60
2017-08-19T09:00:50.414Z,54.07
2017-08-19T09:03:19.059Z,57.63
2017-08-19T09:05:47.570Z,55.67
2017-08-19T09:08:16.098Z,53.03
2017-08-19T09:10:44.678Z,57.27
2017-08-19T09:13:13.118Z,59.00
2017-08-19T09:15:42.040Z,55.60
2017-08-19T09:18:10.071Z,66.73
2017-08-19T09:20:38.102Z,56.77
2017-08-19T09:23:06.826Z,69.13
2017-08-19T09:25:35.965Z,53.57
2017-08-19T09:28:04.571Z,59.90
2017-08-19T09:30:33.698Z,50.63
2017-08-19T09:33:02.372Z,68.83
2017-08-19T09:35:30.435Z,63.90
2017-08-19T09:37:59.580Z,60.90
2017-08-19T09:40:28.271Z,73.33
2017-08-19T09:42:57.514Z,65.17
2017-08-19T09:45:26.330Z,59.70
2017-08-19T09:47:55.251Z,65.37
2017-08-19T09:50:23.291Z,64.60
2017-08-19T09:52:52.258Z,73.90
2017-08-19T09:55:20.274Z,55.63
2017-08-19T09:57:49.695Z,68.77
2017-08-19T10:00:17.915Z,69.37
2017-08-19T10:02:46.522Z,62.43
2017-08-19T10:05:14.575Z,67.70
2017-08-19T10:07:43.461Z,68.17
2017-08-19T10:23:36.575Z,55.67
2017-08-19T10:26:05.103Z,57.37
2017-08-19T10:28:33.130Z,57.37
2017-08-19T10:31:01.858Z,93.43
2017-08-19T10:33:30.492Z,60.03
2017-08-19T10:35:59.755Z,59.53
2017-08-19T10:38:28.562Z,79.03
2017-08-19T10:40:57.315Z,58.70
2017-08-19T10:43:26.039Z,59.20
2017-08-19T10:45:54.730Z,71.90
2017-08-19T10:48:23.390Z,66.40
2017-08-19T10:50:52.135Z,68.83
2017-08-19T10:53:20.663Z,61.20
2017-08-19T10:55:49.175Z,64.23
2017-08-19T10:58:18.342Z,63.60
2017-08-19T11:00:47.054Z,69.53
2017-08-19T11:03:16.251Z,54.73
2017-08-19T11:05:44.918Z,63.93
2017-08-19T11:08:13.692Z,65.87
2017-08-19T11:10:42.114Z,66.53
2017-08-19T11:13:10.167Z,52.27
2017-08-19T11:15:38.738Z,64.40
2017-08-19T11:18:07.354Z,53.90
2017-08-19T11:20:36.000Z,59.90
2017-08-19T11:23:04.665Z,53.07
2017-08-19T11:25:33.186Z,61.67
2017-08-19T11:28:01.930Z,72.53
2017-08-19T11:30:30.622Z,59.97
2017-08-19T11:32:59.038Z,68.07
2017-08-19T11:35:27.058Z,60.83
2017-08-19T11:37:56.618Z,65.33
2017-08-19T11:40:25.162Z,61.43
2017-08-19T11:42:53.275Z,64.60
2017-08-19T11:45:21.627Z,62.97
2017-08-19T11:47:50.170Z,62.40
2017-08-19T11:50:18.749Z,63.80
2017-08-19T11:52:47.602Z,63.37
2017-08-19T11:55:15.614Z,60.93
2017-08-19T11:57:44.270Z,60.77
2017-08-19T12:00:13.162Z,62.37
2017-08-19T12:02:41.839Z,59.63
2017-08-19T12:05:09.878Z,62.97
2017-08-19T12:07:39.382Z,63.63
2017-08-19T12:10:08.613Z,93.53
2017-08-19T12:12:37.218Z,62.97
2017-08-19T12:15:05.931Z,79.83
2017-08-19T12:17:34.651Z,63.17
2017-08-19T12:20:03.050Z,66.63
2017-08-19T12:22:31.790Z,65.90
2017-08-19T12:25:00.371Z,71.70
2017-08-19T12:27:29.122Z,68.17
2017-08-19T12:29:57.698Z,73.33
2017-08-19T12:32:26.330Z,85.33
2017-08-19T12:34:55.050Z,77.63
2017-08-19T12:37:23.579Z,65.43
2017-08-19T12:39:52.158Z,81.77
2017-08-19T12:42:20.775Z,62.97
2017-08-19T12:44:48.946Z,71.53
2017-08-19T12:47:17.262Z,72.60
2017-08-19T12:49:45.270Z,63.40
2017-08-19T12:52:14.062Z,63.10
2017-08-19T12:54:42.692Z,89.13
2017-08-19T12:57:12.102Z,72.90
2017-08-19T12:59:41.518Z,73.40
2017-08-19T13:02:10.038Z,64.10
2017-08-19T13:04:38.731Z,67.70
2017-08-19T13:07:07.479Z,70.70
2017-08-19T13:09:35.870Z,58.30
2017-08-19T13:12:04.478Z,76.33
2017-08-19T13:14:33.375Z,77.20
2017-08-19T13:17:02.150Z,67.73
2017-08-19T13:19:30.690Z,68.93
2017-08-19T13:22:00.313Z,60.27
2017-08-19T13:24:29.657Z,63.00
2017-08-19T13:26:58.346Z,86.97
2017-08-19T13:29:27.438Z,64.87
2017-08-19T13:31:56.019Z,64.10
2017-08-19T13:34:24.488Z,61.93
2017-08-19T13:36:53.121Z,63.60
2017-08-19T13:39:21.847Z,60.63
2017-08-19T13:41:50.467Z,62.20
2017-08-19T13:44:20.108Z,67.30
2017-08-19T13:46:48.133Z,67.17
2017-08-19T13:49:17.042Z,67.90
2017-08-19T13:51:45.790Z,70.80
2017-08-19T13:54:14.138Z,90.80
2017-08-19T13:56:42.694Z,67.20
2017-08-19T13:59:11.581Z,72.63
2017-08-19T14:01:39.601Z,63.90
2017-08-19T14:04:08.786Z,63.40
2017-08-19T14:06:37.448Z,69.63
2017-08-19T14:09:06.126Z,66.43
2017-08-19T14:11:34.882Z,74.27
2017-08-19T14:14:03.815Z,70.63
2017-08-19T14:16:32.384Z,79.00
2017-08-19T14:19:00.983Z,80.33
2017-08-19T14:21:29.694Z,73.93
2017-08-19T14:23:58.344Z,75.63
2017-08-19T14:26:26.871Z,83.50
2017-08-19T14:28:55.058Z,71.40
2017-08-19T14:31:24.349Z,77.73
2017-08-19T14:33:52.395Z,77.83
2017-08-19T14:36:21.078Z,64.43
2017-08-19T14:38:49.659Z,69.07
2017-08-19T14:41:18.444Z,68.47
2017-08-19T14:43:47.283Z,80.80
2017-08-19T14:46:16.642Z,71.10
2017-08-19T14:48:45.321Z,66.37
2017-08-19T14:51:14.360Z,80.57
2017-08-19T14:53:43.694Z,74.30
2017-08-19T14:56:11.702Z,66.67
2017-08-19T14:58:39.997Z,86.40
2017-08-19T15:01:08.496Z,70.60
2017-08-19T15:03:36.974Z,66.80
2017-08-19T15:06:05.260Z,76.70
2017-08-19T15:08:34.408Z,82.03
2017-08-19T15:11:02.594Z,70.63
2017-08-19T15:13:31.518Z,76.50
2017-08-19T15:16:00.235Z,72.47
2017-08-19T15:18:28.259Z,81.83
2017-08-19T15:20:57.166Z,77.27
2017-08-19T15:23:26.999Z,75.03
2017-08-19T15:25:55.038Z,74.90
2017-08-19T15:28:23.589Z,69.03
2017-08-19T15:30:52.194Z,82.30
2017-08-19T15:33:20.807Z,86.53
2017-08-19T15:35:49.118Z,79.00
2017-08-19T15:38:17.179Z,79.30
2017-08-19T15:40:45.204Z,80.50
2017-08-19T15:43:13.998Z,74.97
2017-08-19T15:45:42.642Z,71.73
2017-08-19T15:48:24.518Z,73.93
2017-08-19T17:58:06.802Z,79.27
2017-08-19T18:00:35.719Z,90.47
2017-08-19T18:03:04.438Z,82.40
2017-08-19T18:05:32.961Z,86.10
2017-08-19T18:08:01.646Z,86.80
2017-08-19T18:10:30.262Z,80.77
2017-08-19T18:12:59.330Z,88.60
2017-08-19T18:15:28.007Z,76.10
2017-08-19T18:17:56.431Z,80.40
2017-08-19T18:20:25.705Z,82.40
2017-08-19T18:22:54.295Z,86.53
2017-08-19T18:25:22.907Z,97.00
2017-08-19T18:27:51.830Z,83.30
2017-08-19T18:30:20.233Z,82.67
2017-08-19T18:32:48.734Z,72.30
2017-08-19T18:35:17.546Z,80.77
2017-08-19T18:37:46.267Z,76.57
2017-08-19T18:40:14.702Z,81.40
2017-08-19T18:42:43.479Z,82.33
2017-08-19T18:45:12.090Z,89.90
2017-08-19T18:47:40.815Z,78.27
2017-08-19T18:50:09.013Z,75.97
2017-08-19T18:52:37.042Z,89.60
2017-08-19T18:55:06.462Z,79.57
2017-08-19T18:57:34.973Z,77.90
2017-08-19T19:00:03.611Z,79.13
2017-08-19T19:02:32.752Z,81.17
2017-08-19T19:05:01.132Z,80.43
2017-08-19T19:07:29.903Z,77.37
2017-08-19T19:09:58.298Z,80.60
2017-08-19T19:12:27.105Z,76.53
2017-08-19T19:14:55.723Z,90.83
2017-08-19T19:17:24.442Z,89.00
2017-08-19T19:19:53.130Z,81.13
2017-08-19T19:22:21.154Z,83.10
2017-08-19T19:24:49.191Z,89.43
2017-08-19T19:27:18.107Z,83.67
2017-08-19T19:29:46.791Z,84.00
2017-08-19T19:32:15.571Z,87.20
2017-08-19T19:34:44.230Z,86.80
2017-08-19T19:37:12.763Z,105.30
2017-08-19T19:39:41.439Z,83.07
2017-08-19T19:42:10.291Z,90.07
2017-08-19T19:44:38.696Z,89.33
2017-08-19T19:47:07.124Z,89.87
2017-08-19T20:02:26.418Z,89.07
2017-08-19T20:04:54.939Z,92.50
2017-08-19T20:07:23.622Z,84.37
2017-08-19T20:09:52.475Z,84.90
2017-08-19T20:12:20.879Z,92.90
2017-08-19T20:14:49.486Z,84.63
2017-08-19T20:17:18.300Z,87.20
2017-08-19T20:19:46.923Z,83.93
2017-08-19T20:22:15.319Z,94.93
2017-08-19T20:24:44.034Z,83.40
2017-08-19T20:27:12.638Z,90.43
2017-08-19T20:29:41.070Z,87.27
2017-08-19T20:32:09.782Z,90.87
2017-08-19T20:34:37.807Z,91.87
2017-08-19T20:37:07.277Z,86.67
2017-08-19T20:39:36.110Z,80.93
2017-08-19T20:42:04.507Z,79.17
2017-08-19T20:44:33.118Z,87.40
2017-08-19T20:47:01.833Z,83.87
2017-08-19T20:49:30.550Z,82.73
2017-08-19T20:51:58.950Z,91.87
2017-08-19T20:54:27.102Z,89.37
2017-08-19T20:56:55.619Z,91.30
2017-08-19T20:59:24.215Z,90.50
2017-08-19T21:01:53.035Z,88.83
2017-08-19T21:04:21.478Z,87.63
2017-08-19T21:06:50.074Z,81.27
2017-08-19T21:09:18.786Z,84.27
2017-08-19T21:11:47.507Z,88.17
2017-08-19T21:14:16.032Z,83.70
2017-08-19T21:16:45.026Z,88.60
2017-08-19T21:19:13.610Z,94.27
2017-08-19T21:21:42.359Z,75.60
2017-08-19T21:24:10.882Z,81.10
2017-08-19T21:26:39.467Z,92.17
2017-08-19T21:29:08.082Z,85.00
2017-08-19T21:31:37.010Z,88.43
2017-08-19T21:34:05.628Z,83.13
2017-08-19T21:36:35.139Z,98.13
2017-08-19T21:39:03.885Z,83.63
2017-08-19T21:41:31.907Z,92.47
2017-08-19T21:44:00.583Z,81.97
2017-08-19T21:46:28.702Z,89.87
2017-08-19T21:48:57.840Z,86.23
2017-08-19T21:51:26.448Z,89.63
2017-08-19T21:53:55.342Z,90.80
2017-08-19T21:56:24.018Z,87.13
2017-08-19T21:58:52.806Z,91.77
2017-08-19T22:01:22.559Z,83.63
2017-08-19T22:03:51.170Z,84.47
2017-08-19T22:06:19.572Z,96.27
2017-08-19T22:08:47.690Z,85.53
2017-08-19T22:11:16.122Z,88.50
2017-08-19T22:13:44.642Z,87.30
2017-08-19T22:16:13.518Z,81.87
2017-08-19T22:18:41.559Z,87.80
2017-08-19T22:21:10.126Z,83.60
2017-08-19T22:23:39.615Z,91.60
2017-08-19T22:26:08.195Z,93.90
2017-08-19T22:28:37.063Z,87.30
2017-08-19T22:31:05.610Z,90.57
2017-08-19T22:33:34.126Z,86.93
2017-08-19T22:36:02.738Z,91.87
2017-08-19T22:38:31.561Z,102.07
2017-08-19T22:41:00.014Z,86.57
2017-08-19T22:43:28.594Z,94.53
2017-08-19T22:45:57.358Z,95.57
2017-08-19T22:48:25.410Z,110.60
2017-08-19T22:50:54.042Z,86.10
2017-08-19T22:53:23.010Z,88.87
2017-08-19T22:55:51.034Z,85.70
2017-08-19T22:58:20.265Z,82.20
2017-08-19T23:00:49.075Z,87.73
2017-08-19T23:03:17.966Z,80.73
2017-08-19T23:05:46.579Z,90.57
2017-08-19T23:08:15.182Z,82.90
2017-08-19T23:10:44.598Z,82.60
2017-08-19T23:13:13.054Z,83.60
2017-08-19T23:15:41.715Z,76.87
2017-08-19T23:18:10.395Z,70.43
2017-08-19T23:20:39.173Z,86.83
2017-08-19T23:23:07.835Z,78.73
2017-08-19T23:25:36.370Z,75.13
2017-08-19T23:28:05.038Z,69.17
2017-08-19T23:30:33.995Z,81.80
2017-08-19T23:33:02.390Z,78.60
2017-08-19T23:35:31.008Z,81.40
2017-08-19T23:37:59.819Z,76.50
2017-08-19T23:40:28.474Z,88.00
2017-08-19T23:42:57.256Z,88.70
2017-08-19T23:45:25.358Z,70.33
2017-08-19T23:47:53.374Z,96.03
2017-08-19T23:50:21.900Z,86.33
2017-08-19T23:52:50.690Z,85.93
2017-08-19T23:55:19.434Z,80.40
2017-08-19T23:57:47.831Z,76.23
